createdAt,value
2022-10-21T00:02:44.643Z,99054.00
2022-10-21T00:05:48.869Z,99044.94
2022-10-21T00:08:53.451Z,99054.81
2022-10-21T00:11:56.887Z,99055.09
2022-10-21T00:15:00.489Z,99039.75
2022-10-21T00:18:03.835Z,99047.16
2022-10-21T00:21:09.149Z,99047.97
2022-10-21T00:24:13.759Z,99039.75
2022-10-21T00:27:16.798Z,99043.03
2022-10-21T00:30:20.935Z,99037.81
2022-10-21T00:33:24.417Z,99026.84
2022-10-21T00:36:28.016Z,99035.91
2022-10-21T00:39:32.629Z,99048.50
2022-10-21T00:42:43.995Z,99039.19
2022-10-21T00:45:55.473Z,99045.78
2022-10-21T00:49:03.421Z,99028.50
2022-10-21T00:52:14.227Z,99042.22
2022-10-21T00:55:19.174Z,99018.09
2022-10-21T00:58:27.396Z,99031.53
2022-10-21T01:01:31.539Z,99027.69
2022-10-21T01:04:35.405Z,99024.94
2022-10-21T01:07:41.083Z,99023.31
2022-10-21T01:10:46.939Z,99021.09
2022-10-21T01:14:42.109Z,99021.94
2022-10-21T01:17:56.863Z,99010.19
2022-10-21T01:21:21.574Z,99013.44
2022-10-21T01:25:06.761Z,99009.31
2022-10-21T01:28:30.728Z,99021.66
2022-10-21T01:31:44.783Z,99015.34
2022-10-21T01:34:59.025Z,99020.84
2022-10-21T01:38:11.783Z,99004.94
2022-10-21T01:41:26.139Z,99002.78
2022-10-21T01:44:37.843Z,98984.38
2022-10-21T01:47:50.975Z,98970.66
2022-10-21T01:51:00.322Z,98973.41
2022-10-21T01:54:14.965Z,98977.78
2022-10-21T01:57:25.606Z,98966.00
2022-10-21T02:00:30.774Z,98966.59
2022-10-21T02:03:41.554Z,98958.09
2022-10-21T02:06:45.276Z,98958.63
2022-10-21T02:09:48.646Z,98954.78
2022-10-21T02:12:55.994Z,98957.53
2022-10-21T02:16:04.904Z,98954.78
2022-10-21T02:19:16.722Z,98953.97
2022-10-21T02:22:24.279Z,98950.41
2022-10-21T02:25:34.478Z,98942.19
2022-10-21T02:32:05.762Z,98937.25
2022-10-21T02:35:29.522Z,98936.13
2022-10-21T02:38:42.042Z,98942.47
2022-10-21T02:41:49.339Z,98949.88
2022-10-21T02:44:53.927Z,98948.78
2022-10-21T02:47:57.831Z,98940.81
2022-10-21T02:51:04.893Z,98933.41
2022-10-21T02:54:08.317Z,98935.63
2022-10-21T02:57:11.576Z,98935.63
2022-10-21T03:00:16.491Z,98940.28
2022-10-21T03:03:20.177Z,98927.41
2022-10-21T03:06:25.155Z,98920.28
2022-10-21T03:09:28.377Z,98923.00
2022-10-21T03:12:31.799Z,98915.59
2022-10-21T03:15:35.363Z,98908.19
2022-10-21T03:18:38.904Z,98891.75
2022-10-21T03:21:43.536Z,98886.25
2022-10-21T03:24:46.780Z,98890.38
2022-10-21T03:27:51.327Z,98882.97
2022-10-21T03:30:55.760Z,98891.22
2022-10-21T03:33:59.013Z,98893.13
2022-10-21T03:37:03.554Z,98899.16
2022-10-21T03:40:11.461Z,98901.34
2022-10-21T03:43:15.604Z,98891.22
2022-10-21T03:46:18.784Z,98887.66
2022-10-21T03:49:22.397Z,98895.59
2022-10-21T03:52:26.970Z,98896.41
2022-10-21T03:55:30.115Z,98897.22
2022-10-21T03:58:35.341Z,98900.78
2022-10-21T04:01:38.743Z,98898.88
2022-10-21T04:04:42.094Z,98902.72
2022-10-21T04:07:50.665Z,98892.56
2022-10-21T04:10:59.029Z,98891.75
2022-10-21T04:14:02.049Z,98885.44
2022-10-21T04:17:07.513Z,98897.22
2022-10-21T04:20:12.653Z,98879.69
2022-10-21T04:23:17.871Z,98868.44
2022-10-21T04:26:21.286Z,98853.38
2022-10-21T04:29:24.678Z,98856.94
2022-10-21T04:32:28.122Z,98860.50
2022-10-21T04:35:31.708Z,98855.81
2022-10-21T04:38:36.328Z,98861.31
2022-10-21T04:41:39.522Z,98853.38
2022-10-21T04:44:42.777Z,98852.53
2022-10-21T04:47:46.160Z,98851.19
2022-10-21T04:50:50.063Z,98853.94
2022-10-21T04:53:54.760Z,98838.28
2022-10-21T04:56:58.068Z,98843.25
2022-10-21T05:00:01.912Z,98848.44
2022-10-21T05:03:05.515Z,98850.09
2022-10-21T05:06:08.734Z,98847.34
2022-10-21T05:09:13.294Z,98848.41
2022-10-21T05:12:16.573Z,98846.22
2022-10-21T05:15:19.663Z,98842.09
2022-10-21T05:18:23.025Z,98838.75
2022-10-21T05:21:26.743Z,98837.38
2022-10-21T05:24:31.369Z,98830.75
2022-10-21T05:27:34.991Z,98834.31
2022-10-21T05:30:38.358Z,98828.53
2022-10-21T05:33:41.625Z,98824.38
2022-10-21T05:36:44.991Z,98825.72
2022-10-21T05:39:49.345Z,98815.28
2022-10-21T05:42:52.685Z,98816.94
2022-10-21T05:45:55.788Z,98831.19
2022-10-21T05:48:59.053Z,98832.81
2022-10-21T05:52:02.833Z,98818.50
2022-10-21T05:55:09.760Z,98830.03
2022-10-21T05:58:12.848Z,98827.31
2022-10-21T06:01:16.298Z,98833.31
2022-10-21T06:04:19.645Z,98829.47
2022-10-21T06:07:23.150Z,98831.94
2022-10-21T06:10:29.180Z,98840.41
2022-10-21T06:13:33.104Z,98837.13
2022-10-21T06:16:36.214Z,98841.22
2022-10-21T06:19:39.388Z,98835.47
2022-10-21T06:22:42.650Z,98834.03
2022-10-21T06:25:56.824Z,98833.72
2022-10-21T06:28:59.965Z,98827.97
2022-10-21T06:32:03.296Z,98826.59
2022-10-21T06:35:06.795Z,98832.59
2022-10-21T06:38:09.988Z,98827.66
2022-10-21T06:41:15.732Z,98833.06
2022-10-21T06:44:19.469Z,98837.69
2022-10-21T06:47:22.998Z,98823.13
2022-10-21T06:50:26.599Z,98824.09
2022-10-21T06:53:32.100Z,98816.31
2022-10-21T06:56:40.689Z,98809.66
2022-10-21T06:59:43.733Z,98814.59
2022-10-21T07:02:46.875Z,98814.78
2022-10-21T07:05:49.927Z,98815.56
2022-10-21T07:08:58.248Z,98798.50
2022-10-21T07:12:03.575Z,98791.84
2022-10-21T07:15:07.809Z,98784.66
2022-10-21T07:18:10.961Z,98782.97
2022-10-21T07:21:18.162Z,98771.06
2022-10-21T07:24:22.750Z,98767.44
2022-10-21T07:27:27.463Z,98769.59
2022-10-21T07:30:30.561Z,98766.84
2022-10-21T07:33:37.146Z,98764.84
2022-10-21T07:36:44.253Z,98754.06
2022-10-21T07:39:47.609Z,98751.84
2022-10-21T07:42:52.157Z,98747.09
2022-10-21T07:45:55.781Z,98751.69
2022-10-21T07:48:59.310Z,98739.28
2022-10-21T07:52:02.665Z,98733.19
2022-10-21T07:55:06.886Z,98723.53
2022-10-21T07:58:11.545Z,98722.63
2022-10-21T08:01:17.673Z,98722.31
2022-10-21T08:04:24.892Z,98714.28
2022-10-21T08:07:28.167Z,98708.19
2022-10-21T08:10:31.500Z,98706.75
2022-10-21T08:13:36.097Z,98693.00
2022-10-21T08:16:40.081Z,98704.53
2022-10-21T08:19:43.202Z,98693.44
2022-10-21T08:22:46.444Z,98684.09
2022-10-21T08:25:52.345Z,98686.53
2022-10-21T08:28:59.802Z,98679.69
2022-10-21T08:32:02.996Z,98674.78
2022-10-21T08:35:07.151Z,98675.00
2022-10-21T08:38:12.364Z,98671.66
2022-10-21T08:41:54.220Z,98665.78
2022-10-21T08:45:06.992Z,98670.47
2022-10-21T08:48:19.169Z,98661.63
2022-10-21T08:51:32.636Z,98653.66
2022-10-21T08:54:46.934Z,98654.69
2022-10-21T08:57:53.497Z,98648.16
2022-10-21T09:01:06.434Z,98646.75
2022-10-21T09:04:20.760Z,98645.41
2022-10-21T09:07:34.783Z,98639.41
2022-10-21T09:10:57.320Z,98616.28
2022-10-21T09:14:33.104Z,98620.38
2022-10-21T09:18:06.672Z,98639.84
2022-10-21T09:21:24.710Z,98622.50
2022-10-21T09:24:36.780Z,98626.47
2022-10-21T09:27:55.151Z,98624.25
2022-10-21T09:31:11.987Z,98633.69
2022-10-21T09:34:34.180Z,98629.53
2022-10-21T09:37:44.831Z,98624.25
2022-10-21T09:40:52.771Z,98615.06
2022-10-21T09:43:56.342Z,98607.81
2022-10-21T09:46:59.617Z,98608.31
2022-10-21T09:50:07.575Z,98606.59
2022-10-21T09:53:22.578Z,98603.72
2022-10-21T09:56:37.432Z,98600.97
2022-10-21T09:59:55.890Z,98598.94
2022-10-21T10:02:59.158Z,98592.09
2022-10-21T10:06:06.543Z,98593.13
2022-10-21T10:09:17.026Z,98599.44
2022-10-21T10:12:23.861Z,98590.66
2022-10-21T10:15:37.329Z,98589.25
2022-10-21T10:18:41.302Z,98589.03
2022-10-21T10:21:48.112Z,98585.97
2022-10-21T10:24:52.084Z,98585.69
2022-10-21T10:27:59.616Z,98589.75
2022-10-21T10:31:03.588Z,98588.63
2022-10-21T10:34:16.003Z,98584.13
2022-10-21T10:37:24.085Z,98581.38
2022-10-21T10:40:34.115Z,98580.88
2022-10-21T10:43:46.220Z,98570.34
2022-10-21T10:46:56.893Z,98575.78
2022-10-21T10:50:00.084Z,98564.78
2022-10-21T10:53:23.540Z,98564.84
2022-10-21T10:56:31.360Z,98567.41
2022-10-21T10:59:42.131Z,98562.38
2022-10-21T11:02:57.957Z,98572.28
2022-10-21T11:06:16.395Z,98559.63
2022-10-21T11:09:23.860Z,98554.28
2022-10-21T11:12:28.439Z,98547.13
2022-10-21T11:15:57.539Z,98538.25
2022-10-21T11:19:13.741Z,98521.53
2022-10-21T11:22:35.753Z,98522.84
2022-10-21T11:25:46.979Z,98514.28
2022-10-21T11:29:07.420Z,98514.16
2022-10-21T11:32:30.296Z,98515.97
2022-10-21T11:35:57.982Z,98503.22
2022-10-21T11:39:36.493Z,98497.19
2022-10-21T11:42:44.887Z,98495.06
2022-10-21T11:46:05.209Z,98486.19
2022-10-21T11:49:33.094Z,98492.19
2022-10-21T11:53:02.244Z,98469.81
2022-10-21T11:56:23.534Z,98486.03
2022-10-21T11:59:54.095Z,98475.53
2022-10-21T12:03:35.206Z,98473.91
2022-10-21T12:06:54.550Z,98474.22
2022-10-21T12:10:05.457Z,98466.75
2022-10-21T12:13:17.965Z,98460.78
2022-10-21T12:16:29.545Z,98448.28
2022-10-21T12:19:33.165Z,98441.97
2022-10-21T12:22:37.450Z,98447.47
2022-10-21T12:25:49.324Z,98462.06
2022-10-21T12:29:02.206Z,98449.41
2022-10-21T12:32:23.353Z,98442.78
2022-10-21T12:38:52.226Z,98434.34
2022-10-21T12:42:06.994Z,98431.78
2022-10-21T12:45:28.443Z,98433.09
2022-10-21T12:48:39.517Z,98424.31
2022-10-21T12:51:51.636Z,98432.47
2022-10-21T12:55:01.144Z,98436.66
2022-10-21T12:58:09.772Z,98448.50
2022-10-21T13:01:43.538Z,98443.34
2022-10-21T13:04:53.069Z,98434.91
2022-10-21T13:08:27.340Z,98435.09
2022-10-21T13:11:41.358Z,98431.84
2022-10-21T13:14:48.445Z,98437.97
2022-10-21T13:17:54.540Z,98428.59
2022-10-21T13:21:00.510Z,98434.28
2022-10-21T13:24:24.377Z,98425.03
2022-10-21T13:27:31.885Z,98429.59
2022-10-21T13:30:38.998Z,98428.13
2022-10-21T13:33:53.779Z,98438.50
2022-10-21T13:36:59.088Z,98441.56
2022-10-21T13:40:07.488Z,98435.44
2022-10-21T13:43:19.139Z,98446.47
2022-10-21T13:46:28.700Z,98437.38
2022-10-21T13:49:34.562Z,98441.75
2022-10-21T13:52:39.182Z,98429.94
2022-10-21T13:55:42.288Z,98426.69
2022-10-21T13:58:45.744Z,98422.59
2022-10-21T14:01:52.227Z,98434.13
2022-10-21T14:04:55.459Z,98436.69
2022-10-21T14:08:03.741Z,98439.63
2022-10-21T14:11:18.612Z,98440.25
2022-10-21T14:14:26.593Z,98439.78
2022-10-21T14:17:30.659Z,98443.47
2022-10-21T14:20:37.971Z,98441.03
2022-10-21T14:23:46.508Z,98445.72
2022-10-21T14:26:49.671Z,98438.09
2022-10-21T14:29:53.431Z,98440.03
2022-10-21T14:33:01.595Z,98433.72
2022-10-21T14:36:12.572Z,98436.78
2022-10-21T14:39:21.753Z,98432.06
2022-10-21T14:42:26.616Z,98426.41
2022-10-21T14:45:33.471Z,98425.59
2022-10-21T14:48:40.859Z,98437.44
2022-10-21T14:51:44.025Z,98436.41
2022-10-21T14:54:56.195Z,98427.66
2022-10-21T14:58:10.321Z,98442.25
2022-10-21T15:01:19.562Z,98445.91
2022-10-21T15:04:50.718Z,98444.19
2022-10-21T15:08:29.197Z,98426.34
2022-10-21T15:11:45.237Z,98424.22
2022-10-21T15:14:48.552Z,98425.16
2022-10-21T15:18:02.937Z,98417.91
2022-10-21T15:21:13.413Z,98414.44
2022-10-21T15:24:22.278Z,98426.25
2022-10-21T15:27:36.941Z,98422.69
2022-10-21T15:30:42.161Z,98427.19
2022-10-21T15:33:46.327Z,98425.09
2022-10-21T15:36:49.846Z,98427.34
2022-10-21T15:39:53.244Z,98433.47
2022-10-21T15:42:58.032Z,98435.09
2022-10-21T15:46:01.230Z,98437.94
2022-10-21T15:49:16.873Z,98439.59
2022-10-21T15:52:20.503Z,98431.47
2022-10-21T15:55:23.578Z,98436.97
2022-10-21T15:58:29.182Z,98425.44
2022-10-21T16:01:32.210Z,98433.19
2022-10-21T16:04:35.572Z,98430.75
2022-10-21T16:10:31.478Z,98423.75
2022-10-21T16:13:35.652Z,98429.06
2022-10-21T16:16:44.784Z,98434.56
2022-10-21T16:19:48.026Z,98431.13
2022-10-21T16:22:51.517Z,98428.50
2022-10-21T16:25:57.409Z,98423.31
2022-10-21T16:29:00.507Z,98424.22
2022-10-21T16:32:05.204Z,98429.53
2022-10-21T16:35:10.204Z,98432.88
2022-10-21T16:38:13.423Z,98432.72
2022-10-21T16:41:21.338Z,98437.41
2022-10-21T16:44:24.856Z,98435.06
2022-10-21T16:47:28.464Z,98428.22
2022-10-21T16:50:40.445Z,98427.13
2022-10-21T16:53:43.644Z,98424.78
2022-10-21T16:56:48.253Z,98433.03
2022-10-21T16:59:51.333Z,98440.75
2022-10-21T17:02:54.728Z,98443.81
2022-10-21T17:05:58.069Z,98436.97
2022-10-21T17:09:01.271Z,98436.97
2022-10-21T17:12:07.724Z,98434.53
2022-10-21T17:15:16.787Z,98430.50
2022-10-21T17:18:20.497Z,98430.81
2022-10-21T17:21:26.916Z,98438.53
2022-10-21T17:24:31.240Z,98430.59
2022-10-21T17:27:35.813Z,98427.03
2022-10-21T17:30:39.107Z,98431.19
2022-10-21T17:33:42.843Z,98426.81
2022-10-21T17:36:46.398Z,98421.31
2022-10-21T17:39:50.444Z,98423.25
2022-10-21T17:42:55.838Z,98412.25
2022-10-21T17:45:59.105Z,98425.53
2022-10-21T17:49:02.264Z,98419.22
2022-10-21T17:52:05.751Z,98412.09
2022-10-21T17:55:09.875Z,98410.44
2022-10-21T17:58:14.450Z,98399.47
2022-10-21T18:01:18.383Z,98391.22
2022-10-21T18:04:21.826Z,98393.44
2022-10-21T18:07:25.215Z,98386.31
2022-10-21T18:10:28.653Z,98380.00
2022-10-21T18:13:34.521Z,98373.69
2022-10-21T18:16:38.109Z,98376.75
2022-10-21T18:19:41.924Z,98374.00
2022-10-21T18:22:45.339Z,98363.00
2022-10-21T18:25:48.892Z,98356.69
2022-10-21T18:28:57.223Z,98354.47
2022-10-21T18:32:00.559Z,98350.38
2022-10-21T18:35:04.019Z,98348.44
2022-10-21T18:38:07.216Z,98337.75
2022-10-21T18:41:20.123Z,98341.31
2022-10-21T18:44:25.558Z,98347.13
2022-10-21T18:47:29.052Z,98339.19
2022-10-21T18:50:32.730Z,98331.75
2022-10-21T18:53:40.659Z,98327.41
2022-10-21T18:56:45.067Z,98331.28
2022-10-21T18:59:49.768Z,98334.03
2022-10-21T19:02:53.090Z,98329.34
2022-10-21T19:05:56.616Z,98332.41
2022-10-21T19:09:01.919Z,98328.53
2022-10-21T19:12:08.599Z,98332.41
2022-10-21T19:15:16.658Z,98337.91
2022-10-21T19:18:19.960Z,98337.38
2022-10-21T19:21:24.320Z,98321.72
2022-10-21T19:24:28.117Z,98334.94
2022-10-21T19:27:31.501Z,98328.63
2022-10-21T19:30:38.612Z,98333.63
2022-10-21T19:33:43.865Z,98348.16
2022-10-21T19:36:47.590Z,98339.09
2022-10-21T19:39:51.055Z,98343.78
2022-10-21T19:42:54.363Z,98347.66
2022-10-21T19:46:03.222Z,98355.59
2022-10-21T19:49:09.593Z,98360.06
2022-10-21T19:52:12.931Z,98355.69
2022-10-21T19:55:16.626Z,98349.41
2022-10-21T19:58:19.869Z,98359.59
2022-10-21T20:01:27.591Z,98355.69
2022-10-21T20:04:33.802Z,98357.97
2022-10-21T20:07:39.562Z,98361.81
2022-10-21T20:10:42.796Z,98350.84
2022-10-21T20:13:47.714Z,98361.81
2022-10-21T20:16:52.148Z,98357.97
2022-10-21T20:19:55.300Z,98352.47
2022-10-21T20:22:58.389Z,98362.50
2022-10-21T20:26:01.858Z,98355.81
2022-10-21T20:29:05.130Z,98349.41
2022-10-21T20:32:10.190Z,98351.19
2022-10-21T20:35:13.382Z,98349.78
2022-10-21T20:38:16.732Z,98320.88
2022-10-21T20:41:22.890Z,98345.16
2022-10-21T20:44:26.062Z,98337.72
2022-10-21T20:47:30.985Z,98332.44
2022-10-21T20:50:35.744Z,98329.38
2022-10-21T20:53:40.797Z,98323.75
2022-10-21T20:56:44.490Z,98323.44
2022-10-21T20:59:47.723Z,98326.69
2022-10-21T21:02:52.342Z,98327.19
2022-10-21T21:05:55.455Z,98337.38
2022-10-21T21:12:26.970Z,98310.66
2022-10-21T21:15:30.159Z,98338.94
2022-10-21T21:18:35.200Z,98313.25
2022-10-21T21:21:38.581Z,98332.19
2022-10-21T21:24:42.845Z,98333.72
2022-10-21T21:27:46.054Z,98329.56
2022-10-21T21:30:52.838Z,98333.31
2022-10-21T21:33:57.675Z,98325.06
2022-10-21T21:37:00.893Z,98325.38
2022-10-21T21:40:04.859Z,98330.56
2022-10-21T21:43:08.051Z,98333.00
2022-10-21T21:46:11.199Z,98327.50
2022-10-21T21:49:15.616Z,98327.50
2022-10-21T21:52:18.787Z,98331.38
2022-10-21T21:55:22.242Z,98323.63
2022-10-21T21:58:25.526Z,98318.94
2022-10-21T22:01:30.779Z,98306.81
2022-10-21T22:04:35.638Z,98291.63
2022-10-21T22:07:39.122Z,98299.88
2022-10-21T22:10:42.479Z,98295.31
2022-10-21T22:13:45.903Z,98297.38
2022-10-21T22:16:49.588Z,98297.47
2022-10-21T22:19:54.388Z,98298.91
2022-10-21T22:22:57.765Z,98298.22
2022-10-21T22:26:01.207Z,98295.56
2022-10-21T22:29:04.549Z,98294.56
2022-10-21T22:32:08.003Z,98303.41
2022-10-21T22:35:12.645Z,98302.94
2022-10-21T22:38:16.339Z,98295.81
2022-10-21T22:41:19.837Z,98285.13
2022-10-21T22:44:23.283Z,98293.88
2022-10-21T22:47:26.620Z,98295.81
2022-10-21T22:50:31.075Z,98283.72
2022-10-21T22:53:36.590Z,98274.66
2022-10-21T22:56:39.867Z,98276.06
2022-10-21T22:59:44.245Z,98279.94
2022-10-21T23:02:48.045Z,98278.31
2022-10-21T23:05:53.364Z,98280.56
2022-10-21T23:08:56.661Z,98292.97
2022-10-21T23:11:59.934Z,98288.59
2022-10-21T23:15:03.305Z,98287.78
2022-10-21T23:18:06.882Z,98293.63
2022-10-21T23:21:11.764Z,98284.22
2022-10-21T23:24:16.095Z,98293.63
2022-10-21T23:27:19.602Z,98283.75
2022-10-21T23:30:23.286Z,98288.13
2022-10-21T23:33:27.333Z,98289.72
2022-10-21T23:36:31.936Z,98296.84
2022-10-21T23:39:34.943Z,98292.47
2022-10-21T23:42:41.843Z,98306.22
2022-10-21T23:45:46.091Z,98308.16
2022-10-21T23:48:49.721Z,98308.47
2022-10-21T23:51:54.292Z,98308.47
2022-10-21T23:54:57.532Z,98309.09
2022-10-21T23:58:01.208Z,98311.03
